createdAt,value
2023-03-23T15:59:09.837Z,82.42
2023-03-23T16:01:38.262Z,82.56
2023-03-23T16:04:14.720Z,83.36
2023-03-23T16:06:41.801Z,83.18
2023-03-23T16:09:13.248Z,83.90
2023-03-23T16:11:39.849Z,84.32
2023-03-23T16:14:06.536Z,83.67
2023-03-23T16:16:37.418Z,83.96
2023-03-23T16:19:04.183Z,83.38
2023-03-23T16:21:31.155Z,82.21
2023-03-23T16:23:57.791Z,83.24
2023-03-23T16:26:24.574Z,83.64
2023-03-23T16:28:53.287Z,83.34
2023-03-23T16:31:21.980Z,82.86
2023-03-23T16:33:48.783Z,83.85
2023-03-23T16:36:15.359Z,83.23
2023-03-23T16:38:49.981Z,83.39
2023-03-23T16:41:18.091Z,83.32
2023-03-23T16:43:44.499Z,83.75
2023-03-23T16:46:13.267Z,83.28
2023-03-23T16:48:40.799Z,84.03
2023-03-23T16:51:07.738Z,83.89
2023-03-23T16:53:34.276Z,84.51
2023-03-23T16:56:00.793Z,84.22
2023-03-23T16:58:28.570Z,83.65
2023-03-23T17:00:55.133Z,83.92
2023-03-23T17:03:22.397Z,83.42
2023-03-23T17:05:52.439Z,82.84
2023-03-23T17:08:21.236Z,83.71
2023-03-23T17:10:48.783Z,83.48
2023-03-23T17:13:15.761Z,82.93
2023-03-23T17:15:46.702Z,83.65
2023-03-23T17:18:15.147Z,84.07
2023-03-23T17:20:42.307Z,83.40
2023-03-23T17:23:08.799Z,83.18
2023-03-23T17:25:35.474Z,83.58
2023-03-23T17:28:05.316Z,83.44
2023-03-23T17:30:32.447Z,83.03
2023-03-23T17:32:59.167Z,82.97
2023-03-23T17:35:25.654Z,84.17
2023-03-23T17:37:52.145Z,83.26
2023-03-23T17:40:18.878Z,83.72
2023-03-23T17:42:45.357Z,83.61
2023-03-23T17:45:11.964Z,83.70
2023-03-23T17:47:38.745Z,83.51
2023-03-23T17:50:11.547Z,84.13
2023-03-23T17:52:39.384Z,84.40
2023-03-23T17:55:06.464Z,83.97
2023-03-23T17:57:32.989Z,84.04
2023-03-23T17:59:59.459Z,84.22
2023-03-23T18:02:26.059Z,84.15
2023-03-23T18:04:52.549Z,83.98
2023-03-23T18:07:24.274Z,84.70
2023-03-23T18:09:50.738Z,83.84
2023-03-23T18:12:17.788Z,84.49
2023-03-23T18:14:44.929Z,84.58
2023-03-23T18:17:11.396Z,83.48
2023-03-23T18:19:38.057Z,83.30
2023-03-23T18:22:04.710Z,83.90
2023-03-23T18:24:31.163Z,84.05
2023-03-23T18:26:57.607Z,84.32
2023-03-23T18:29:24.020Z,83.13
2023-03-23T18:31:50.571Z,83.12
2023-03-23T18:34:17.075Z,83.31
2023-03-23T18:36:43.524Z,83.77
2023-03-23T18:39:12.870Z,83.58
2023-03-23T18:41:39.313Z,82.86
2023-03-23T18:44:06.212Z,83.19
2023-03-23T18:46:32.806Z,83.43
2023-03-23T18:48:59.332Z,83.12
2023-03-23T18:51:26.186Z,82.24
2023-03-23T18:53:52.674Z,82.54
2023-03-23T18:56:19.281Z,83.99
2023-03-23T18:58:49.448Z,83.50
2023-03-23T19:01:17.571Z,83.56
2023-03-23T19:03:45.805Z,82.95
2023-03-23T19:06:19.268Z,84.27
2023-03-23T19:08:47.050Z,83.48
2023-03-23T19:11:14.241Z,83.04
2023-03-23T19:13:47.362Z,82.80
2023-03-23T19:16:25.202Z,83.78
2023-03-23T19:18:51.673Z,84.24
2023-03-23T19:21:21.261Z,83.01
2023-03-23T19:23:51.707Z,83.30
2023-03-23T19:26:23.648Z,84.75
2023-03-23T19:31:22.725Z,84.46
2023-03-23T19:33:49.259Z,83.64
2023-03-23T19:36:16.782Z,83.27
2023-03-23T19:38:43.653Z,83.92
2023-03-23T19:41:10.125Z,83.19
2023-03-23T19:43:37.775Z,84.14
2023-03-23T19:46:04.694Z,83.03
2023-03-23T19:48:31.796Z,83.82
2023-03-23T19:50:58.581Z,84.40
2023-03-23T19:53:26.680Z,86.44
2023-03-23T19:55:53.733Z,85.80
2023-03-23T19:58:20.833Z,85.20
2023-03-23T20:00:48.531Z,84.21
2023-03-23T20:03:16.005Z,85.03
2023-03-23T20:05:43.033Z,85.82
2023-03-23T20:08:10.486Z,84.10
2023-03-23T20:10:38.350Z,84.95
2023-03-23T20:13:05.307Z,85.57
2023-03-23T20:18:14.424Z,85.92
2023-03-23T20:20:41.098Z,85.51
2023-03-23T20:23:08.654Z,85.65
2023-03-23T20:25:35.760Z,86.48
2023-03-23T20:28:02.397Z,85.36
2023-03-23T20:30:29.183Z,85.79
2023-03-23T20:32:58.159Z,86.72
2023-03-23T20:35:24.756Z,87.59
2023-03-23T20:37:52.570Z,86.29
2023-03-23T20:40:20.523Z,87.69
2023-03-23T20:42:48.190Z,87.88
2023-03-23T20:45:16.051Z,88.24
2023-03-23T20:47:42.612Z,87.91
2023-03-23T20:50:10.600Z,86.79
2023-03-23T20:52:37.122Z,86.22
2023-03-23T20:55:04.140Z,87.97
2023-03-23T20:57:30.606Z,86.99
2023-03-23T20:59:57.083Z,86.43
2023-03-23T21:02:25.915Z,86.41
2023-03-23T21:04:52.816Z,86.69
2023-03-23T21:07:22.907Z,86.67
2023-03-23T21:09:49.686Z,86.79
2023-03-23T21:12:16.444Z,86.88
2023-03-23T21:14:44.755Z,87.61
2023-03-23T21:17:11.307Z,88.00
2023-03-23T21:19:38.025Z,86.48
2023-03-23T21:22:05.134Z,87.05
2023-03-23T21:24:31.946Z,87.51
2023-03-23T21:27:00.925Z,87.77
2023-03-23T21:29:28.252Z,87.16
2023-03-23T21:32:07.817Z,87.93
2023-03-23T21:34:36.729Z,86.89
2023-03-23T21:37:03.225Z,86.03
2023-03-23T21:39:29.646Z,87.45
2023-03-23T21:41:56.206Z,86.59
2023-03-23T21:44:22.775Z,86.31
2023-03-23T21:46:52.060Z,86.15
2023-03-23T21:49:18.598Z,86.15
2023-03-23T21:51:45.086Z,87.04
2023-03-23T21:54:11.877Z,86.07
2023-03-23T21:56:39.012Z,86.33
2023-03-23T21:59:07.466Z,87.11
2023-03-23T22:01:36.795Z,86.61
2023-03-23T22:04:04.643Z,87.43
2023-03-23T22:06:34.127Z,88.02
2023-03-23T22:09:02.255Z,89.19
2023-03-23T22:11:31.467Z,90.55
2023-03-23T22:13:58.562Z,91.18
2023-03-23T22:16:26.231Z,89.40
2023-03-23T22:18:54.097Z,89.91
2023-03-23T22:21:25.821Z,91.28
2023-03-23T22:23:52.875Z,91.67
2023-03-23T22:26:20.490Z,91.80
2023-03-23T22:28:49.367Z,90.85
2023-03-23T22:31:21.939Z,90.94
2023-03-23T22:33:50.103Z,91.85
2023-03-23T22:36:17.621Z,92.83
2023-03-23T22:38:46.595Z,91.51
2023-03-23T22:41:17.965Z,91.20
2023-03-23T22:43:44.466Z,90.90
2023-03-23T22:46:11.175Z,91.05
2023-03-23T22:48:38.085Z,90.85
2023-03-23T22:51:05.140Z,91.05
2023-03-23T22:53:31.710Z,90.06
2023-03-23T22:55:58.495Z,90.19
2023-03-23T22:58:26.597Z,89.94
2023-03-23T23:01:01.653Z,90.84
2023-03-23T23:03:29.621Z,90.33
2023-03-23T23:05:57.623Z,89.50
2023-03-23T23:08:26.039Z,90.36
2023-03-23T23:10:54.448Z,90.66
2023-03-23T23:13:20.949Z,90.17
2023-03-23T23:15:49.975Z,89.75
2023-03-23T23:18:17.916Z,91.10
2023-03-23T23:20:44.690Z,91.26
2023-03-23T23:23:11.310Z,90.45
2023-03-23T23:25:37.827Z,90.58
2023-03-23T23:28:05.842Z,90.88
2023-03-23T23:30:32.620Z,90.31
2023-03-23T23:32:59.405Z,89.87
2023-03-23T23:35:26.433Z,90.52
2023-03-23T23:37:53.433Z,89.60
2023-03-23T23:40:20.201Z,89.15
2023-03-23T23:42:48.912Z,89.99
2023-03-23T23:45:15.845Z,88.67
2023-03-23T23:47:42.532Z,89.82
2023-03-23T23:50:11.822Z,88.70
2023-03-23T23:52:39.822Z,88.64
2023-03-23T23:55:08.938Z,89.31
2023-03-23T23:57:35.654Z,88.53
